Yuho Maru No.3 — JD2491 — position and weather

sailwx.info

Track history (hours):
 
Tides and Currents Weather Stations Pressure Air Temp Water Temp Dewpoint Dewpoint Depression Visibility Wind Speed Wind Dir Waves Ship Positions

Yuho Maru No.3

Last reported at 2016-Sep-30 08:04 UTC. Time now 2016-Oct-01 18:54 UTC.
Position N 34°16' E 135°03'.

Length 65 m; draft 4.2 m.

Type: Tanker. MMSI: 431000336.

Date/timePositionNaut miles runAvg speedWind from/ knotsBaromVisibWave heightAir tempDewpointWater temp
2016-Sep-30 08:04N 34°16' E 135°03'244 7.7
2016-Sep-29 00:34N 35°32' E 139°46'5 1.6
2016-Sep-28 21:33N 35°31' E 139°52'13 6.5
2016-Sep-28 19:33N 35°36' E 140°06'0 0.0
2016-Sep-28 16:33N 35°36' E 140°06'0 0.0
2016-Sep-28 15:33N 35°36' E 140°06'0 0.0
2016-Sep-28 12:33N 35°36' E 140°06'9 1.1
2016-Sep-28 03:33N 35°40' E 139°56'0 0.0
2016-Sep-28 02:33N 35°40' E 139°56'0 0.0
2016-Sep-28 01:33N 35°40' E 139°56'0 0.0
2016-Sep-27 23:33N 35°40' E 139°56'4 1.0
2016-Sep-27 19:34N 35°37' E 139°55'0 0.0
2016-Sep-27 14:34N 35°37' E 139°55'0 0.0
2016-Sep-27 13:33N 35°37' E 139°55'0 0.0
2016-Sep-27 10:34N 35°37' E 139°55'20 2.0
2016-Sep-27 00:34N 35°19' E 139°44'  
2016-Sep-22 00:31N 35°08' E 139°43'1111.3
2016-Sep-21 23:32N 35°19' E 139°43'1111.2
2016-Sep-21 22:33N 35°29' E 139°49'0 0.0
2016-Sep-21 19:34N 35°29' E 139°49'0 0.0
2016-Sep-21 16:34N 35°29' E 139°49'0 0.0
2016-Sep-21 09:34N 35°29' E 139°49'0 0.0
2016-Sep-21 08:33N 35°29' E 139°49'11 3.5
2016-Sep-21 05:33N 35°30' E 140°02'1 0.7
2016-Sep-21 03:32N 35°30' E 140°00'0 0.0
2016-Sep-21 02:33N 35°30' E 140°00'4 0.4
2016-Sep-20 17:31N 35°32' E 139°56'0 0.0
2016-Sep-20 14:33N 35°32' E 139°56'0 0.0
2016-Sep-20 13:33N 35°32' E 139°56'0 0.0
2016-Sep-20 10:33N 35°32' E 139°56'6 2.8
2016-Sep-20 08:33N 35°28' E 140°01'  
Track history (hours):
 
Tides and Currents Weather Stations Pressure Air Temp Water Temp Dewpoint Dewpoint Depression Visibility Wind Speed Wind Dir Waves Ship Positions

Yuho Maru No.3

Last reported at 2016-Sep-30 08:04 UTC. Time now 2016-Oct-01 18:54 UTC.
Position N 34°16' E 135°03'.

Length 65 m; draft 4.2 m.

Type: Tanker. MMSI: 431000336.

Date/timePositionNaut miles runAvg speedWind from/ knotsBaromVisibWave heightAir tempDewpointWater temp
2016-Sep-30 08:04N 34°16' E 135°03'244 7.7
2016-Sep-29 00:34N 35°32' E 139°46'5 1.6
2016-Sep-28 21:33N 35°31' E 139°52'13 6.5
2016-Sep-28 19:33N 35°36' E 140°06'0 0.0
2016-Sep-28 16:33N 35°36' E 140°06'0 0.0
2016-Sep-28 15:33N 35°36' E 140°06'0 0.0
2016-Sep-28 12:33N 35°36' E 140°06'9 1.1
2016-Sep-28 03:33N 35°40' E 139°56'0 0.0
2016-Sep-28 02:33N 35°40' E 139°56'0 0.0
2016-Sep-28 01:33N 35°40' E 139°56'0 0.0
2016-Sep-27 23:33N 35°40' E 139°56'4 1.0
2016-Sep-27 19:34N 35°37' E 139°55'0 0.0
2016-Sep-27 14:34N 35°37' E 139°55'0 0.0
2016-Sep-27 13:33N 35°37' E 139°55'0 0.0
2016-Sep-27 10:34N 35°37' E 139°55'20 2.0
2016-Sep-27 00:34N 35°19' E 139°44'  
2016-Sep-22 00:31N 35°08' E 139°43'1111.3
2016-Sep-21 23:32N 35°19' E 139°43'1111.2
2016-Sep-21 22:33N 35°29' E 139°49'0 0.0
2016-Sep-21 19:34N 35°29' E 139°49'0 0.0
2016-Sep-21 16:34N 35°29' E 139°49'0 0.0
2016-Sep-21 09:34N 35°29' E 139°49'0 0.0
2016-Sep-21 08:33N 35°29' E 139°49'11 3.5
2016-Sep-21 05:33N 35°30' E 140°02'1 0.7
2016-Sep-21 03:32N 35°30' E 140°00'0 0.0
2016-Sep-21 02:33N 35°30' E 140°00'4 0.4
2016-Sep-20 17:31N 35°32' E 139°56'0 0.0
2016-Sep-20 14:33N 35°32' E 139°56'0 0.0
2016-Sep-20 13:33N 35°32' E 139°56'0 0.0
2016-Sep-20 10:33N 35°32' E 139°56'6 2.8
2016-Sep-20 08:33N 35°28' E 140°01'  

Dump ship's entire track history